Greater Rochester International Airport
KROC : now visible

Airfield :











YOU CAN JOIN US ON...

 
LOGIN :

Register | Disclaimer

   EN    FR    IT 

 









Legend :    VFR   Marginal VFR   IFR   Intensive IFR   Very Intensive IFR
Visi :
Ceiling :
>= 8 km
>= 3000ft
5 to 8 km
1000 to 3000 ft
1500m to 5 km
500 to 1000 ft
800 to 1500m
200 to 500 ft
< 800m
< 200 ft
Symbols :   Thunderstorms  Fog  Heavy snow  Heavy precipitations  Wind > 20 kt






- Airport Elevation : 559 ft
- IATA code : ROC


KROC - Greater Rochester International

CURRENT METAR :
  • 072054Z 06007KT 10SM OVC075 12/M02 A2977 RMK AO2 SLP085 T01171017 56025

EXPIRED METARs :
  • 071954Z 04013KT 10SM FEW100 BKN220 13/M01 A2978 RMK AO2 SLP089 T01281011
  • 071854Z 03009KT 10SM FEW110 SCT180 BKN230 15/M01 A2981 RMK AO2 SLP099 T01501006

TAF KROC
Valid from the 07 at 21:00 until the 08 at 18:00 UTC


072052Z 0721/0818 05010KT P6SM OVC200
FM072300 25005KT P6SM -SHRA OVC080
FM080200 09006KT P6SM VCSH OVC040
FM080500 09007KT 6SM -SHRA OVC025
FM081000 36006KT 4SM BR OVC007
FM081600 34006KT P6SM OVC007



MET'MAP, your aeronautical weather chart ! - Copyright ORBIFLY December 2007 - Disclaimer

ORBIFLY MET'MAP TEAM :

Programming & Development : Alexandra Zaïnal
Concept & original design : Baudouin d'Aumeries
Assistance for programming : Marc-Olivier Méhu
Technical & hardware support : Manuel Goepfert

Contact : metmap@orbifly.com




SOURCES & CREDITS :

   NOAA       Earth
Advisory